Time;durP1;ratioP1;P1;durP2;ratioP2;P2;SDS_P1;SDS_P2;PMS_P1;PMS_P2;Temp;Humidity;BMP_temperature;BMP_pressure;BME280_temperature;BME280_humidity;BME280_pressure;Samples;Min_cycle;Max_cycle;Signal;HPM_P1;HPM_P2
2022/09/16 00:02:01;;;;;;;3.75;0.90;;;11.60;99.90;;;;;;4938602;29;20067;-86
2022/09/16 00:04:27;;;;;;;4.03;0.73;;;11.50;99.90;;;;;;4934375;29;20051;-85
2022/09/16 00:06:53;;;;;;;2.67;0.55;;;11.50;99.90;;;;;;4952157;29;20051;-86
2022/09/16 00:09:18;;;;;;;6.20;1.35;;;11.50;99.90;;;;;;4936242;29;20094;-86
2022/09/16 00:11:44;;;;;;;3.03;0.60;;;11.40;99.90;;;;;;4957187;29;20662;-86
2022/09/16 00:14:10;;;;;;;4.47;0.70;;;11.40;99.90;;;;;;4939185;29;20059;-86
2022/09/16 00:16:35;;;;;;;6.63;0.80;;;11.30;99.90;;;;;;4953478;29;20057;-86
2022/09/16 00:19:02;;;;;;;5.07;0.70;;;11.30;99.90;;;;;;4936175;29;20043;-86
2022/09/16 00:21:28;;;;;;;2.67;0.80;;;11.30;99.90;;;;;;4939209;29;20051;-86
2022/09/16 00:23:55;;;;;;;5.28;1.08;;;11.30;99.90;;;;;;4955908;29;20538;-87
2022/09/16 00:26:20;;;;;;;5.30;0.80;;;11.40;99.90;;;;;;4936406;29;20047;-86
2022/09/16 00:28:49;;;;;;;6.35;1.05;;;11.40;99.90;;;;;;4947793;29;20054;-87
2022/09/16 00:31:16;;;;;;;4.47;0.93;;;11.70;99.90;;;;;;4940495;29;20050;-87
2022/09/16 00:33:41;;;;;;;4.45;0.80;;;11.40;99.90;;;;;;4955734;28;20118;-86
2022/09/16 00:36:10;;;;;;;5.53;0.90;;;11.50;99.90;;;;;;4940240;29;20051;-86
2022/09/16 00:38:35;;;;;;;6.38;0.90;;;11.50;99.90;;;;;;4935936;29;20714;-86
2022/09/16 00:41:02;;;;;;;5.28;0.60;;;11.50;99.90;;;;;;4922584;29;20040;-87
2022/09/16 00:43:27;;;;;;;4.40;0.75;;;11.50;99.90;;;;;;4940146;29;20047;-86
2022/09/16 00:46:01;;;;;;;5.55;0.75;;;11.50;99.90;;;;;;4953650;29;20491;-87
2022/09/16 00:48:29;;;;;;;7.38;0.82;;;11.60;99.90;;;;;;4932723;29;20512;-86
2022/09/16 00:51:08;;;;;;;5.65;0.90;;;11.50;99.90;;;;;;4955616;29;20090;-86
2022/09/16 00:53:39;;;;;;;6.22;0.80;;;11.50;99.90;;;;;;4951587;29;20047;-86
2022/09/16 00:56:08;;;;;;;6.35;1.33;;;11.60;99.90;;;;;;4934799;29;20059;-87
2022/09/16 00:58:41;;;;;;;5.95;0.77;;;11.60;99.90;;;;;;4938575;29;20039;-86
2022/09/16 01:01:07;;;;;;;2.30;0.95;;;11.60;99.90;;;;;;4955416;29;20053;-86
2022/09/16 01:03:41;;;;;;;2.83;0.50;;;11.60;99.90;;;;;;4954065;28;20126;-86
2022/09/16 01:06:10;;;;;;;3.10;0.60;;;11.60;99.90;;;;;;4934897;29;20126;-86
2022/09/16 01:08:36;;;;;;;4.38;0.95;;;11.60;99.90;;;;;;4923208;29;20065;-86
2022/09/16 01:11:01;;;;;;;5.00;0.70;;;11.60;99.90;;;;;;4955805;29;20484;-87
2022/09/16 01:13:27;;;;;;;5.43;0.70;;;11.60;99.90;;;;;;4956594;29;20035;-85
2022/09/16 01:16:11;;;;;;;6.20;0.60;;;11.60;99.90;;;;;;4935011;29;20047;-87
2022/09/16 01:19:12;;;;;;;5.13;0.60;;;11.60;99.90;;;;;;4954479;28;20036;-86
2022/09/16 01:21:59;;;;;;;5.35;0.43;;;11.60;99.90;;;;;;4955880;29;20503;-86
2022/09/16 01:24:49;;;;;;;5.70;0.80;;;11.50;99.90;;;;;;4925129;29;20058;-87
2022/09/16 01:27:27;;;;;;;3.13;0.50;;;11.50;99.90;;;;;;4942313;29;20082;-87
2022/09/16 01:30:12;;;;;;;4.13;0.90;;;11.40;99.90;;;;;;4933089;29;20039;-86
2022/09/16 01:33:10;;;;;;;3.85;0.50;;;11.50;99.90;;;;;;4953227;29;20039;-87
2022/09/16 01:35:48;;;;;;;2.88;0.95;;;11.50;99.90;;;;;;4936733;29;20083;-86
2022/09/16 01:38:32;;;;;;;4.45;0.80;;;11.50;99.90;;;;;;4931123;29;20495;-86
2022/09/16 01:41:17;;;;;;;2.67;0.50;;;11.50;99.90;;;;;;4938890;29;20062;-87
2022/09/16 01:43:49;;;;;;;3.38;0.60;;;11.50;99.90;;;;;;4938730;29;20120;-86
2022/09/16 01:46:30;;;;;;;4.30;0.60;;;11.40;99.90;;;;;;4955659;29;20043;-86
2022/09/16 01:49:13;;;;;;;5.50;0.60;;;11.40;99.90;;;;;;4952176;28;20142;-86
2022/09/16 01:51:48;;;;;;;3.65;0.73;;;11.40;99.90;;;;;;4954305;29;20047;-86
2022/09/16 01:54:34;;;;;;;3.58;0.68;;;11.30;99.90;;;;;;4947808;29;20031;-86
2022/09/16 01:57:22;;;;;;;5.03;0.77;;;11.20;99.90;;;;;;4938517;29;20361;-86
2022/09/16 01:59:59;;;;;;;5.28;0.75;;;11.20;99.90;;;;;;4946713;29;20046;-86
2022/09/16 02:02:28;;;;;;;2.95;0.70;;;11.20;99.90;;;;;;4934848;29;20088;-86
2022/09/16 02:04:56;;;;;;;3.08;0.63;;;11.20;99.90;;;;;;4938623;29;20051;-86
2022/09/16 02:07:27;;;;;;;3.45;0.70;;;11.30;99.90;;;;;;4954759;28;20035;-86
2022/09/16 02:10:05;;;;;;;6.00;0.85;;;11.20;99.90;;;;;;4951745;28;20040;-86
2022/09/16 02:12:36;;;;;;;3.88;0.63;;;11.20;99.90;;;;;;4954340;29;20035;-86
2022/09/16 02:15:07;;;;;;;5.00;0.77;;;11.10;99.90;;;;;;4940881;29;20586;-87
2022/09/16 02:17:37;;;;;;;6.97;0.80;;;11.10;99.90;;;;;;4945399;29;20127;-86
2022/09/16 02:20:09;;;;;;;4.82;0.60;;;11.10;99.90;;;;;;4932900;29;20039;-87
2022/09/16 02:22:43;;;;;;;6.53;0.85;;;11.00;99.90;;;;;;4954897;28;20040;-86
2022/09/16 02:25:10;;;;;;;5.15;0.90;;;11.00;99.90;;;;;;4932399;29;20055;-86
2022/09/16 02:27:38;;;;;;;5.72;0.73;;;11.00;99.90;;;;;;4932018;29;20039;-86
2022/09/16 02:30:13;;;;;;;5.38;0.85;;;11.00;99.90;;;;;;4953552;29;20043;-86
2022/09/16 02:32:40;;;;;;;;;;;11.10;99.90;;;;;;4953211;28;20086;-87
2022/09/16 02:35:11;;;;;;;6.55;0.82;;;11.10;99.90;;;;;;4955643;29;19926;-87
2022/09/16 02:38:04;;;;;;;6.07;0.98;;;11.10;99.90;;;;;;4937222;29;20043;-87
2022/09/16 02:41:02;;;;;;;2.03;0.60;;;11.10;99.90;;;;;;4933640;29;20142;-87
2022/09/16 02:43:28;;;;;;;5.32;0.77;;;11.00;99.90;;;;;;4934913;29;20111;-87
2022/09/16 02:46:28;;;;;;;5.38;1.10;;;11.00;99.90;;;;;;4949886;29;20048;-86
2022/09/16 02:49:21;;;;;;;4.55;0.73;;;11.10;99.90;;;;;;4940295;29;20066;-86
2022/09/16 02:52:11;;;;;;;5.15;0.70;;;11.10;99.90;;;;;;4936119;29;20067;-87
2022/09/16 02:54:59;;;;;;;4.15;0.93;;;11.10;99.90;;;;;;4928893;29;20047;-86
2022/09/16 02:57:26;;;;;;;6.05;0.70;;;11.10;99.90;;;;;;4950942;29;20122;-85
2022/09/16 02:59:52;;;;;;;5.68;1.05;;;11.10;99.90;;;;;;4933356;29;20059;-86
2022/09/16 03:02:17;;;;;;;5.32;0.77;;;11.20;99.90;;;;;;4937826;29;20423;-84
2022/09/16 03:04:44;;;;;;;6.65;1.23;;;11.30;99.90;;;;;;4938786;28;20062;-86
2022/09/16 03:07:10;;;;;;;8.55;0.90;;;11.20;99.90;;;;;;4936096;29;20044;-85
2022/09/16 03:09:40;;;;;;;6.72;0.85;;;11.20;99.90;;;;;;4931715;29;20075;-86
2022/09/16 03:12:35;;;;;;;6.57;0.65;;;11.30;99.90;;;;;;4935413;29;20059;-86
2022/09/16 03:15:22;;;;;;;4.72;0.60;;;11.30;99.90;;;;;;4919460;29;20071;-86
2022/09/16 03:18:13;;;;;;;7.75;1.00;;;11.30;99.90;;;;;;4934213;29;20055;-86
2022/09/16 03:20:48;;;;;;;4.07;0.80;;;11.30;99.90;;;;;;4917468;29;20130;-86
2022/09/16 03:23:19;;;;;;;;;;;11.30;99.90;;;;;;4937939;29;20055;-86
2022/09/16 03:26:01;;;;;;;7.45;0.80;;;11.30;99.90;;;;;;4932623;29;19931;-86
2022/09/16 03:28:39;;;;;;;6.10;0.70;;;11.30;99.90;;;;;;4920481;29;20047;-86
2022/09/16 03:31:07;;;;;;;7.75;0.88;;;11.20;99.90;;;;;;4914059;29;20055;-86
2022/09/16 03:33:46;;;;;;;4.22;0.70;;;11.20;99.90;;;;;;4938585;29;20046;-86
2022/09/16 03:36:18;;;;;;;8.13;0.80;;;11.10;99.90;;;;;;4934529;29;20496;-85
2022/09/16 03:38:44;;;;;;;5.85;0.60;;;11.10;99.90;;;;;;4917579;29;20044;-86
2022/09/16 03:41:12;;;;;;;4.35;0.70;;;11.00;99.90;;;;;;4921380;29;20044;-86
2022/09/16 03:43:38;;;;;;;5.90;0.50;;;11.00;99.90;;;;;;4921860;29;20044;-86
2022/09/16 03:46:10;;;;;;;6.00;0.70;;;10.90;99.90;;;;;;4920573;29;20055;-85
2022/09/16 03:48:35;;;;;;;4.57;0.65;;;10.80;99.90;;;;;;4936251;29;20039;-86
2022/09/16 03:51:01;;;;;;;3.03;0.60;;;10.80;99.90;;;;;;4923485;29;20044;-86
2022/09/16 03:53:29;;;;;;;8.38;1.33;;;10.70;99.90;;;;;;4921205;29;20191;-86
2022/09/16 03:55:55;;;;;;;6.25;0.80;;;10.70;99.90;;;;;;4916764;29;20394;-86
2022/09/16 03:58:20;;;;;;;5.20;0.70;;;10.60;99.90;;;;;;4938394;29;20051;-85
2022/09/16 04:00:49;;;;;;;3.92;0.63;;;10.50;99.90;;;;;;4921213;29;20306;-87
2022/09/16 04:03:16;;;;;;;5.22;0.93;;;10.60;99.90;;;;;;4923982;28;20046;-87
2022/09/16 04:05:42;;;;;;;2.80;0.70;;;10.70;99.90;;;;;;4929361;29;20123;-87
2022/09/16 04:08:07;;;;;;;4.07;1.02;;;10.60;99.90;;;;;;4955139;29;20082;-87
2022/09/16 04:10:33;;;;;;;5.93;0.70;;;10.70;99.90;;;;;;4936915;29;20542;-87
2022/09/16 04:12:59;;;;;;;6.00;0.63;;;10.70;99.90;;;;;;4937937;29;20127;-87
2022/09/16 04:15:25;;;;;;;5.22;0.70;;;10.70;99.90;;;;;;4939008;29;20048;-86
2022/09/16 04:17:50;;;;;;;2.88;0.60;;;10.70;99.90;;;;;;4937702;29;20095;-87
2022/09/16 04:20:16;;;;;;;4.05;0.93;;;10.60;99.90;;;;;;4935158;29;20115;-87
2022/09/16 04:22:42;;;;;;;7.22;0.70;;;10.60;99.90;;;;;;4932516;29;20086;-87
2022/09/16 04:25:08;;;;;;;7.80;0.80;;;10.50;99.90;;;;;;4937042;29;20394;-87
2022/09/16 04:27:34;;;;;;;5.88;0.70;;;10.50;99.90;;;;;;4938443;29;20068;-88
2022/09/16 04:30:00;;;;;;;7.30;1.52;;;10.40;99.90;;;;;;4922417;29;20441;-86
2022/09/16 04:32:25;;;;;;;5.80;1.08;;;10.40;99.90;;;;;;4936701;29;20043;-87
2022/09/16 04:34:51;;;;;;;6.97;1.02;;;10.30;99.90;;;;;;4933601;29;20055;-87
2022/09/16 04:37:17;;;;;;;8.40;1.00;;;10.80;99.90;;;;;;4931008;29;20112;-87
2022/09/16 04:39:42;;;;;;;6.38;0.60;;;10.30;99.90;;;;;;4931842;29;20508;-87
2022/09/16 04:42:11;;;;;;;4.28;0.90;;;10.20;99.90;;;;;;4934938;29;20075;-87
2022/09/16 04:44:37;;;;;;;5.10;0.90;;;10.20;99.90;;;;;;4921634;29;20051;-87
2022/09/16 04:47:02;;;;;;;3.20;0.60;;;10.20;99.90;;;;;;4936353;29;20491;-87
2022/09/16 04:49:28;;;;;;;8.52;0.80;;;10.10;99.90;;;;;;4937748;29;20040;-87
2022/09/16 04:51:54;;;;;;;5.43;0.90;;;10.00;99.90;;;;;;4935713;29;20056;-87
2022/09/16 04:54:19;;;;;;;5.32;0.90;;;10.10;99.90;;;;;;4930189;29;20085;-86
2022/09/16 04:56:45;;;;;;;9.07;1.13;;;10.00;99.90;;;;;;4936070;29;20125;-86
2022/09/16 04:59:11;;;;;;;6.88;0.90;;;10.00;99.90;;;;;;4949980;29;20063;-85
2022/09/16 05:01:38;;;;;;;4.05;0.80;;;10.00;99.90;;;;;;4956182;28;20047;-87
2022/09/16 05:04:05;;;;;;;4.70;0.77;;;10.60;99.90;;;;;;4923371;29;20052;-86
2022/09/16 05:06:34;;;;;;;3.58;0.73;;;10.10;99.90;;;;;;4922416;29;20143;-87
2022/09/16 05:09:00;;;;;;;5.85;1.00;;;10.10;99.90;;;;;;4918970;29;20044;-86
2022/09/16 05:11:33;;;;;;;5.43;0.60;;;10.20;99.90;;;;;;4934726;29;20072;-87
2022/09/16 05:14:03;;;;;;;5.75;1.13;;;10.20;99.90;;;;;;4918087;29;20189;-86
2022/09/16 05:16:29;;;;;;;8.25;1.00;;;10.20;99.90;;;;;;4906864;29;20063;-88
2022/09/16 05:18:57;;;;;;;11.52;1.25;;;10.30;99.90;;;;;;4917635;29;20059;-87
2022/09/16 05:21:25;;;;;;;5.93;0.77;;;10.40;99.90;;;;;;4935799;29;20048;-87
2022/09/16 05:23:51;;;;;;;6.65;0.90;;;10.40;99.90;;;;;;4913564;29;20044;-86
2022/09/16 05:26:22;;;;;;;7.70;1.00;;;10.40;99.90;;;;;;4933099;29;20047;-85
2022/09/16 05:28:49;;;;;;;7.93;1.33;;;10.40;99.90;;;;;;4932347;29;20062;-86
2022/09/16 05:31:18;;;;;;;5.90;0.80;;;10.40;99.90;;;;;;4916287;29;20055;-88
2022/09/16 05:33:46;;;;;;;7.32;1.20;;;10.30;99.90;;;;;;4934288;29;20083;-86
2022/09/16 05:36:14;;;;;;;4.57;1.00;;;10.50;99.90;;;;;;4920995;29;20370;-86
2022/09/16 05:38:40;;;;;;;8.13;1.00;;;10.30;99.90;;;;;;4918445;29;20031;-86
2022/09/16 05:41:06;;;;;;;7.80;0.95;;;10.20;99.90;;;;;;4931652;29;20655;-86
2022/09/16 05:43:33;;;;;;;10.20;0.98;;;10.20;99.90;;;;;;4917932;29;20127;-86
2022/09/16 05:46:00;;;;;;;5.32;0.88;;;10.10;99.90;;;;;;4927198;29;20036;-85
2022/09/16 05:48:26;;;;;;;9.98;0.95;;;10.10;99.90;;;;;;4933077;29;20035;-85
2022/09/16 05:50:52;;;;;;;8.05;0.90;;;10.10;99.90;;;;;;4930409;29;20043;-87
2022/09/16 05:53:17;;;;;;;11.18;1.40;;;10.20;99.90;;;;;;4911155;29;20063;-86
2022/09/16 05:56:13;;;;;;;7.22;0.98;;;10.10;99.90;;;;;;4932868;29;20035;-87
2022/09/16 05:58:39;;;;;;;7.03;0.90;;;10.10;99.90;;;;;;4917464;29;20055;-89
2022/09/16 06:01:10;;;;;;;10.00;1.00;;;10.10;99.90;;;;;;4933989;29;20050;-88
2022/09/16 06:03:38;;;;;;;4.65;0.95;;;10.10;99.90;;;;;;4926907;29;20051;-87
2022/09/16 06:06:24;;;;;;;9.38;1.52;;;10.10;99.90;;;;;;4911718;29;20055;-87
2022/09/16 06:08:51;;;;;;;9.32;1.05;;;10.10;99.90;;;;;;4916741;29;20094;-86
2022/09/16 06:11:17;;;;;;;8.32;1.20;;;10.10;99.90;;;;;;4933242;29;20055;-87
2022/09/16 06:13:42;;;;;;;8.23;1.20;;;10.10;99.90;;;;;;4934106;29;20043;-87
2022/09/16 06:16:09;;;;;;;8.52;1.08;;;10.20;99.90;;;;;;4933132;29;20063;-85
2022/09/16 06:18:36;;;;;;;10.93;1.25;;;10.20;99.90;;;;;;4931914;29;20047;-86
2022/09/16 06:21:10;;;;;;;10.20;1.10;;;10.20;99.90;;;;;;4915614;29;20064;-87
2022/09/16 06:23:37;;;;;;;7.32;1.10;;;10.20;99.90;;;;;;4935348;29;20051;-86
2022/09/16 06:26:10;;;;;;;6.60;0.85;;;10.30;99.90;;;;;;4915436;29;20055;-86
2022/09/16 06:28:36;;;;;;;5.88;1.05;;;10.30;99.90;;;;;;4933267;29;20056;-87
2022/09/16 06:31:07;;;;;;;7.38;1.00;;;10.30;99.90;;;;;;4930861;29;20044;-84
2022/09/16 06:33:34;;;;;;;10.38;1.15;;;10.30;99.90;;;;;;4934450;29;20047;-86
2022/09/16 06:36:08;;;;;;;10.52;1.30;;;10.40;99.90;;;;;;4917688;29;20072;-86
2022/09/16 06:38:35;;;;;;;5.82;1.00;;;10.40;99.90;;;;;;4934008;29;20052;-87
2022/09/16 06:41:03;;;;;;;15.88;1.00;;;10.40;99.90;;;;;;4913068;29;20532;-86
2022/09/16 06:43:29;;;;;;;12.98;1.52;;;10.40;99.90;;;;;;4926551;29;20115;-86
2022/09/16 06:46:01;;;;;;;7.00;0.90;;;10.70;99.90;;;;;;4915162;29;20525;-87
2022/09/16 06:48:27;;;;;;;8.45;1.45;;;10.60;99.90;;;;;;4927748;29;20044;-86
2022/09/16 06:51:00;;;;;;;7.05;0.80;;;10.40;99.90;;;;;;4935967;29;20047;-94
2022/09/16 06:53:27;;;;;;;6.25;1.00;;;10.40;99.90;;;;;;4910760;29;20516;-95
2022/09/16 06:55:53;;;;;;;8.73;1.20;;;10.50;99.90;;;;;;4931170;29;20041;-94
2022/09/16 06:58:18;;;;;;;9.90;1.15;;;10.60;99.90;;;;;;4931216;29;20848;-92
2022/09/16 07:00:44;;;;;;;10.45;0.93;;;10.60;99.90;;;;;;4940771;29;20486;-92
2022/09/16 07:03:09;;;;;;;7.20;1.13;;;10.70;99.90;;;;;;4927638;29;20082;-93
2022/09/16 07:05:35;;;;;;;8.15;1.02;;;10.80;99.90;;;;;;4920191;29;20053;-93
2022/09/16 07:08:01;;;;;;;11.45;1.10;;;10.90;99.90;;;;;;4937234;29;20059;-94
2022/09/16 07:10:26;;;;;;;7.13;1.02;;;10.90;99.90;;;;;;4938013;29;20046;-92
2022/09/16 07:12:52;;;;;;;7.13;1.10;;;11.00;99.90;;;;;;4929791;29;20128;-94
2022/09/16 07:15:17;;;;;;;8.02;1.27;;;11.10;99.90;;;;;;4926987;29;20048;-90
2022/09/16 07:17:43;;;;;;;8.65;1.13;;;11.10;99.90;;;;;;4927888;29;20055;-89
2022/09/16 07:20:09;;;;;;;12.32;2.47;;;11.20;99.90;;;;;;4931935;29;20043;-89
2022/09/16 07:22:34;;;;;;;7.75;1.33;;;11.20;99.90;;;;;;4928108;29;20048;-89
2022/09/16 07:25:00;;;;;;;7.55;0.93;;;11.30;99.90;;;;;;4913878;29;20079;-90
2022/09/16 07:27:25;;;;;;;7.47;1.00;;;11.40;99.90;;;;;;4930153;29;20138;-90
2022/09/16 07:29:53;;;;;;;14.55;1.15;;;11.70;99.90;;;;;;4933234;29;20051;-90
2022/09/16 07:32:18;;;;;;;5.40;0.88;;;11.80;99.90;;;;;;4934070;29;20482;-93
2022/09/16 07:34:44;;;;;;;10.82;1.05;;;11.80;99.90;;;;;;4931885;29;20055;-90
2022/09/16 07:37:10;;;;;;;9.85;1.27;;;11.90;99.90;;;;;;4929301;29;20047;-90
2022/09/16 07:39:36;;;;;;;9.25;1.50;;;11.90;99.90;;;;;;4932002;29;20088;-90
2022/09/16 07:42:02;;;;;;;9.18;1.35;;;11.90;99.90;;;;;;4914872;29;20048;-91
2022/09/16 07:44:28;;;;;;;7.30;1.23;;;12.00;99.90;;;;;;4933734;29;20047;-90
2022/09/16 07:46:54;;;;;;;13.18;1.42;;;11.90;99.90;;;;;;4932557;29;20187;-91
2022/09/16 07:49:19;;;;;;;11.65;1.42;;;11.90;99.90;;;;;;4914469;29;20098;-91
2022/09/16 07:51:45;;;;;;;11.10;1.10;;;11.90;99.90;;;;;;4931582;29;20130;-89
2022/09/16 07:54:14;;;;;;;13.93;1.55;;;12.00;99.90;;;;;;4931244;29;20054;-91
2022/09/16 07:56:41;;;;;;;10.60;1.20;;;12.00;99.90;;;;;;4927511;29;20040;-90
2022/09/16 07:59:10;;;;;;;7.82;1.20;;;12.10;99.90;;;;;;4914107;29;20130;-89
2022/09/16 08:01:35;;;;;;;8.75;1.67;;;12.60;99.90;;;;;;4914756;29;20051;-91
2022/09/16 08:04:01;;;;;;;6.43;0.80;;;12.40;99.90;;;;;;4930011;28;20052;-90
2022/09/16 08:06:29;;;;;;;14.38;1.38;;;12.60;99.90;;;;;;4930411;29;20408;-90
2022/09/16 08:08:58;;;;;;;9.68;1.33;;;12.60;99.90;;;;;;4930771;29;20051;-91
2022/09/16 08:11:25;;;;;;;13.13;1.38;;;12.80;99.90;;;;;;4932730;29;20048;-91
2022/09/16 08:13:51;;;;;;;9.35;1.10;;;12.90;99.90;;;;;;4932993;29;20445;-90
2022/09/16 08:16:20;;;;;;;9.98;0.80;;;13.00;99.90;;;;;;4931627;29;20114;-90
2022/09/16 08:18:47;;;;;;;9.38;0.93;;;13.10;99.90;;;;;;4932934;29;20044;-91
2022/09/16 08:21:16;;;;;;;7.85;1.17;;;13.20;99.90;;;;;;4932881;29;20075;-91
2022/09/16 08:23:42;;;;;;;13.35;1.88;;;13.30;99.90;;;;;;4931682;29;20560;-91
2022/09/16 08:26:12;;;;;;;7.70;1.35;;;13.30;99.90;;;;;;4930313;29;20052;-91
2022/09/16 08:28:40;;;;;;;10.32;1.10;;;13.30;99.90;;;;;;4927791;29;20039;-91
2022/09/16 08:31:06;;;;;;;17.38;1.92;;;13.30;99.90;;;;;;4931879;29;20099;-91
2022/09/16 08:33:32;;;;;;;15.40;2.00;;;13.30;99.90;;;;;;4930927;29;20043;-87
2022/09/16 08:36:03;;;;;;;11.57;1.25;;;13.30;99.90;;;;;;4929536;29;20096;-86
2022/09/16 08:38:30;;;;;;;17.48;2.05;;;13.30;99.90;;;;;;4914214;29;20050;-90
2022/09/16 08:41:06;;;;;;;17.02;2.25;;;13.40;99.90;;;;;;4931525;29;20106;-91
2022/09/16 08:43:46;;;;;;;9.40;0.82;;;13.40;99.90;;;;;;4932318;29;20473;-90
2022/09/16 08:46:28;;;;;;;10.00;1.42;;;13.40;99.90;;;;;;4916028;29;20126;-90
2022/09/16 08:49:12;;;;;;;12.88;1.63;;;13.40;99.90;;;;;;4930954;29;20393;-91
2022/09/16 08:51:38;;;;;;;14.60;2.33;;;13.40;99.90;;;;;;4931443;29;20040;-91
2022/09/16 08:54:11;;;;;;;13.50;2.28;;;13.40;99.90;;;;;;4931481;29;20046;-91
2022/09/16 08:56:48;;;;;;;17.33;2.03;;;13.50;99.90;;;;;;4930078;29;20114;-92
2022/09/16 08:59:20;;;;;;;11.88;1.55;;;13.60;99.90;;;;;;4932636;29;20036;-90
2022/09/16 09:01:58;;;;;;;9.05;1.50;;;13.60;99.90;;;;;;4930115;29;20134;-91
2022/09/16 09:04:24;;;;;;;12.50;1.52;;;13.70;99.90;;;;;;4929969;29;20046;-90
2022/09/16 09:07:04;;;;;;;21.88;2.20;;;13.80;99.90;;;;;;4931119;29;20051;-90
2022/09/16 09:09:35;;;;;;;10.57;1.52;;;14.00;99.90;;;;;;4931083;29;20035;-90
2022/09/16 09:12:00;;;;;;;15.38;2.95;;;14.10;99.90;;;;;;4910893;29;20059;-91
2022/09/16 09:14:48;;;;;;;11.73;1.42;;;14.30;99.90;;;;;;4931199;29;20043;-89
2022/09/16 09:17:55;;;;;;;7.60;1.63;;;14.50;99.90;;;;;;4929967;29;20555;-90
2022/09/16 09:20:39;;;;;;;11.50;1.90;;;14.70;99.90;;;;;;4925122;29;20405;-91
2022/09/16 09:23:10;;;;;;;7.30;1.58;;;14.80;99.90;;;;;;4934221;29;20075;-94
2022/09/16 09:25:56;;;;;;;7.53;1.33;;;15.00;99.90;;;;;;4917394;29;20126;-94
2022/09/16 09:29:03;;;;;;;11.88;1.38;;;15.10;99.90;;;;;;4933828;29;20453;-92
2022/09/16 09:31:39;;;;;;;9.95;1.38;;;15.20;99.90;;;;;;4928336;29;20067;-95
2022/09/16 09:34:13;;;;;;;6.57;0.85;;;15.20;99.90;;;;;;4916740;29;20051;-96
2022/09/16 09:37:04;;;;;;;7.35;1.17;;;15.30;99.90;;;;;;4932856;29;20036;-93
2022/09/16 09:39:35;;;;;;;9.43;1.25;;;15.40;99.90;;;;;;4916600;29;20035;-96
2022/09/16 09:42:33;;;;;;;10.63;1.45;;;15.50;99.90;;;;;;4936238;29;20043;-96
2022/09/16 09:45:04;;;;;;;9.15;1.33;;;15.70;99.90;;;;;;4934841;29;20059;-92
2022/09/16 09:47:38;;;;;;;13.35;1.30;;;16.10;99.90;;;;;;4917651;29;20055;-90
2022/09/16 09:50:43;;;;;;;13.82;1.85;;;16.30;99.90;;;;;;4914045;29;20151;-90
2022/09/16 09:53:19;;;;;;;10.50;1.05;;;16.30;99.90;;;;;;4913020;29;20071;-94
2022/09/16 09:55:45;;;;;;;10.40;1.55;;;16.20;99.90;;;;;;4931227;29;20082;-91
2022/09/16 09:58:19;;;;;;;9.15;1.55;;;15.90;99.90;;;;;;4931226;29;20044;-92
2022/09/16 10:00:45;;;;;;;22.48;1.60;;;15.60;99.90;;;;;;4924846;29;20078;-89
2022/09/16 10:03:15;;;;;;;14.10;1.60;;;15.40;99.90;;;;;;4929427;28;20493;-91
2022/09/16 10:05:41;;;;;;;11.85;1.55;;;15.50;99.90;;;;;;4930407;29;20059;-92
2022/09/16 10:08:27;;;;;;;8.88;1.20;;;15.70;99.90;;;;;;4929740;29;20043;-90
2022/09/16 10:10:55;;;;;;;7.78;1.48;;;15.80;99.90;;;;;;4929113;29;20043;-88
2022/09/16 10:13:22;;;;;;;8.80;1.23;;;15.90;99.90;;;;;;4927154;29;20043;-90
2022/09/16 10:15:52;;;;;;;9.43;1.38;;;15.70;99.90;;;;;;4923186;29;20035;-89
2022/09/16 10:18:36;;;;;;;7.18;0.98;;;15.60;99.90;;;;;;4927186;29;20149;-90
2022/09/16 10:21:12;;;;;;;7.00;0.80;;;15.80;99.90;;;;;;4929127;29;20040;-91
2022/09/16 10:23:38;;;;;;;8.65;1.10;;;15.90;99.90;;;;;;4929579;29;20170;-90
2022/09/16 10:26:16;;;;;;;11.38;1.10;;;16.10;99.90;;;;;;4929995;29;20039;-90
2022/09/16 10:28:56;;;;;;;13.93;2.33;;;16.30;99.90;;;;;;4929408;29;20044;-89
2022/09/16 10:31:24;;;;;;;12.45;1.48;;;16.40;99.90;;;;;;4930589;29;20380;-90
2022/09/16 10:33:50;;;;;;;7.00;0.70;;;16.50;99.90;;;;;;4933464;29;20063;-90
2022/09/16 10:36:21;;;;;;;8.63;1.20;;;16.40;99.90;;;;;;4934121;29;20047;-91
2022/09/16 10:38:55;;;;;;;14.10;1.52;;;16.30;99.90;;;;;;4932489;29;20486;-90
2022/09/16 10:41:28;;;;;;;8.55;1.55;;;16.40;99.90;;;;;;4934013;29;20050;-89
2022/09/16 10:44:16;;;;;;;11.45;1.05;;;16.50;99.90;;;;;;4933434;29;20063;-91
2022/09/16 10:47:22;;;;;;;8.52;1.08;;;16.60;99.90;;;;;;4932435;29;20072;-91
2022/09/16 10:49:51;;;;;;;8.50;1.75;;;16.90;99.90;;;;;;4905591;29;20107;-92
2022/09/16 10:52:21;;;;;;;10.25;1.42;;;17.20;99.60;;;;;;4933397;29;20471;-91
2022/09/16 10:54:46;;;;;;;13.98;1.40;;;17.20;99.10;;;;;;4934209;29;20052;-91
2022/09/16 10:57:30;;;;;;;9.07;1.15;;;17.10;99.30;;;;;;4933449;29;20046;-90
2022/09/16 10:59:58;;;;;;;11.80;1.20;;;16.80;98.60;;;;;;4933083;29;20043;-90
2022/09/16 11:02:50;;;;;;;11.68;1.40;;;16.50;99.50;;;;;;4933836;29;20039;-90
2022/09/16 11:05:24;;;;;;;20.90;2.45;;;16.30;98.90;;;;;;4949362;29;20126;-91
2022/09/16 11:07:58;;;;;;;11.30;1.40;;;16.10;99.60;;;;;;4952462;29;20054;-90
2022/09/16 11:10:31;;;;;;;13.00;5.25;;;16.20;99.90;;;;;;4953191;29;20492;-90
2022/09/16 11:13:19;;;;;;;13.82;3.97;;;16.20;99.90;;;;;;4951997;29;20404;-90
2022/09/16 11:16:21;;;;;;;12.45;1.50;;;16.20;99.90;;;;;;4952614;29;20054;-91
2022/09/16 11:18:53;;;;;;;10.32;1.10;;;16.10;99.90;;;;;;4949542;29;20043;-91
2022/09/16 11:21:43;;;;;;;10.18;1.45;;;16.30;99.90;;;;;;4948619;29;20051;-91
2022/09/16 11:24:23;;;;;;;10.93;0.98;;;16.40;99.90;;;;;;4948540;29;20035;-89
2022/09/16 11:27:21;;;;;;;5.43;1.17;;;16.70;99.90;;;;;;4952226;29;20055;-88
2022/09/16 11:30:00;;;;;;;10.02;1.60;;;16.80;99.40;;;;;;4929589;29;20067;-89
2022/09/16 11:32:51;;;;;;;8.93;1.55;;;16.80;99.90;;;;;;4952544;29;20396;-90
2022/09/16 11:35:39;;;;;;;7.82;1.00;;;16.70;99.90;;;;;;4951495;29;20110;-90
2022/09/16 11:38:37;;;;;;;8.95;1.63;;;16.30;99.90;;;;;;4952472;29;20054;-89
2022/09/16 11:41:11;;;;;;;8.75;1.13;;;15.80;99.90;;;;;;4951692;29;20114;-91
2022/09/16 11:43:49;;;;;;;9.80;1.63;;;15.60;99.90;;;;;;4952329;28;20400;-92
2022/09/16 11:46:54;;;;;;;11.85;1.67;;;15.60;99.90;;;;;;4950251;29;20057;-90
2022/09/16 11:49:51;;;;;;;7.90;1.30;;;15.60;99.90;;;;;;4951557;29;20051;-90
2022/09/16 11:52:56;;;;;;;10.30;1.13;;;15.70;99.90;;;;;;4951765;29;20126;-90
2022/09/16 11:55:33;;;;;;;11.60;1.73;;;15.80;99.90;;;;;;4948491;29;20044;-89
2022/09/16 11:58:28;;;;;;;8.75;1.40;;;15.90;99.90;;;;;;4949906;29;20061;-89
2022/09/16 12:00:58;;;;;;;13.93;1.70;;;16.00;99.90;;;;;;4943914;29;20065;-89
2022/09/16 12:03:47;;;;;;;8.75;1.30;;;16.20;99.90;;;;;;4945846;28;20083;-90
2022/09/16 12:06:18;;;;;;;10.27;1.30;;;16.30;99.90;;;;;;4930141;29;20064;-89
2022/09/16 12:08:59;;;;;;;8.70;1.65;;;16.40;99.90;;;;;;4932394;29;20043;-91
2022/09/16 12:11:38;;;;;;;9.27;1.00;;;16.50;99.70;;;;;;4930717;29;20047;-90
2022/09/16 12:14:28;;;;;;;11.70;1.75;;;16.70;99.70;;;;;;4933164;29;20062;-89
2022/09/16 12:16:58;;;;;;;11.90;1.42;;;16.80;98.30;;;;;;4931217;29;20076;-89
2022/09/16 12:19:36;;;;;;;8.68;1.27;;;16.90;97.90;;;;;;4932126;29;20480;-90
2022/09/16 12:22:07;;;;;;;13.35;1.95;;;17.00;98.00;;;;;;4926402;29;20594;-89
2022/09/16 12:24:47;;;;;;;9.52;1.20;;;17.10;98.60;;;;;;4931785;29;20040;-89
2022/09/16 12:27:36;;;;;;;12.50;1.38;;;17.10;97.30;;;;;;4922678;29;20059;-90
2022/09/16 12:30:05;;;;;;;10.30;1.30;;;17.00;98.20;;;;;;4931138;29;20039;-90
2022/09/16 12:32:42;;;;;;;11.18;1.58;;;17.00;98.10;;;;;;4932398;29;20043;-90
2022/09/16 12:35:15;;;;;;;15.15;1.77;;;17.00;97.70;;;;;;4930633;29;20075;-89
2022/09/16 12:37:48;;;;;;;13.90;1.58;;;17.00;97.10;;;;;;4929602;29;20060;-90
2022/09/16 12:40:31;;;;;;;16.90;2.08;;;17.10;98.00;;;;;;4925991;29;20108;-91
2022/09/16 12:43:43;;;;;;;14.23;2.15;;;17.10;98.50;;;;;;4931940;29;20127;-89
2022/09/16 12:46:36;;;;;;;13.25;1.83;;;17.00;98.40;;;;;;4918587;29;20063;-90
2022/09/16 12:49:35;;;;;;;10.82;1.80;;;16.90;98.40;;;;;;4926144;29;20099;-89
2022/09/16 12:52:41;;;;;;;11.25;1.40;;;16.90;97.90;;;;;;4931444;29;20404;-89
2022/09/16 12:56:04;;;;;;;12.02;2.33;;;17.00;96.90;;;;;;4932536;29;20126;-89
2022/09/16 12:58:48;;;;;;;13.10;1.80;;;17.00;97.70;;;;;;4914809;29;20610;-89
2022/09/16 13:01:17;;;;;;;13.13;2.10;;;17.10;98.30;;;;;;4927549;29;20047;-90
2022/09/16 13:04:05;;;;;;;12.95;1.73;;;17.10;97.70;;;;;;4931372;29;20067;-89
2022/09/16 13:06:34;;;;;;;13.93;2.05;;;17.20;99.00;;;;;;4920758;29;20169;-89
2022/09/16 13:09:31;;;;;;;13.75;2.53;;;17.10;98.80;;;;;;4930757;29;20047;-90
2022/09/16 13:12:00;;;;;;;12.18;1.88;;;17.10;99.20;;;;;;4931192;29;20086;-90
2022/09/16 13:14:31;;;;;;;9.90;1.30;;;16.90;98.40;;;;;;4929999;29;20047;-89
2022/09/16 13:16:59;;;;;;;9.90;1.48;;;16.80;98.40;;;;;;4931055;29;20497;-90
2022/09/16 13:19:44;;;;;;;8.93;1.23;;;16.70;98.60;;;;;;4931503;29;20525;-91